sensor_id;sensor_type;location;lat;lon;timestamp;P1;durP1;ratioP1;P2;durP2;ratioP2
68196;SDS011;55019;49.382;11.358;2023-11-22T00:00:08;3.67;;;1.85;;
68196;SDS011;55019;49.382;11.358;2023-11-22T00:02:44;3.75;;;2.22;;
68196;SDS011;55019;49.382;11.358;2023-11-22T00:05:12;2.72;;;1.80;;
68196;SDS011;55019;49.382;11.358;2023-11-22T00:07:38;3.78;;;2.08;;
68196;SDS011;55019;49.382;11.358;2023-11-22T00:10:04;2.45;;;2.00;;
68196;SDS011;55019;49.382;11.358;2023-11-22T00:12:31;4.13;;;2.08;;
68196;SDS011;55019;49.382;11.358;2023-11-22T00:15:06;3.38;;;2.08;;
68196;SDS011;55019;49.382;11.358;2023-11-22T00:17:33;2.95;;;1.95;;
68196;SDS011;55019;49.382;11.358;2023-11-22T00:20:02;3.50;;;2.00;;
68196;SDS011;55019;49.382;11.358;2023-11-22T00:22:34;3.47;;;1.92;;
68196;SDS011;55019;49.382;11.358;2023-11-22T00:25:00;3.25;;;2.42;;
68196;SDS011;55019;49.382;11.358;2023-11-22T00:27:32;3.55;;;1.85;;
68196;SDS011;55019;49.382;11.358;2023-11-22T00:29:58;3.85;;;1.90;;
68196;SDS011;55019;49.382;11.358;2023-11-22T00:32:24;2.47;;;1.50;;
68196;SDS011;55019;49.382;11.358;2023-11-22T00:34:51;2.95;;;1.60;;
68196;SDS011;55019;49.382;11.358;2023-11-22T00:37:17;2.85;;;1.67;;
68196;SDS011;55019;49.382;11.358;2023-11-22T00:39:43;2.45;;;1.65;;
68196;SDS011;55019;49.382;11.358;2023-11-22T00:42:10;1.85;;;1.30;;
68196;SDS011;55019;49.382;11.358;2023-11-22T00:44:36;2.90;;;1.67;;
68196;SDS011;55019;49.382;11.358;2023-11-22T00:47:01;1.67;;;1.17;;
68196;SDS011;55019;49.382;11.358;2023-11-22T00:49:28;2.50;;;1.60;;
68196;SDS011;55019;49.382;11.358;2023-11-22T00:51:54;3.03;;;1.45;;
68196;SDS011;55019;49.382;11.358;2023-11-22T00:54:20;3.00;;;1.63;;
68196;SDS011;55019;49.382;11.358;2023-11-22T00:56:48;2.63;;;1.40;;
68196;SDS011;55019;49.382;11.358;2023-11-22T00:59:14;1.80;;;1.30;;
68196;SDS011;55019;49.382;11.358;2023-11-22T01:01:42;2.35;;;1.38;;
68196;SDS011;55019;49.382;11.358;2023-11-22T01:04:08;3.45;;;1.35;;
68196;SDS011;55019;49.382;11.358;2023-11-22T01:06:34;3.35;;;1.70;;
68196;SDS011;55019;49.382;11.358;2023-11-22T01:09:00;3.00;;;1.50;;
68196;SDS011;55019;49.382;11.358;2023-11-22T01:11:26;2.50;;;1.40;;
68196;SDS011;55019;49.382;11.358;2023-11-22T01:13:51;2.78;;;1.85;;
68196;SDS011;55019;49.382;11.358;2023-11-22T01:16:17;4.15;;;1.80;;
68196;SDS011;55019;49.382;11.358;2023-11-22T01:18:43;4.30;;;1.73;;
68196;SDS011;55019;49.382;11.358;2023-11-22T01:21:11;2.40;;;1.48;;
68196;SDS011;55019;49.382;11.358;2023-11-22T01:23:37;2.85;;;1.73;;
68196;SDS011;55019;49.382;11.358;2023-11-22T01:26:03;2.35;;;1.58;;
68196;SDS011;55019;49.382;11.358;2023-11-22T01:28:29;3.03;;;2.15;;
68196;SDS011;55019;49.382;11.358;2023-11-22T01:30:59;2.92;;;1.70;;
68196;SDS011;55019;49.382;11.358;2023-11-22T01:33:27;3.83;;;1.90;;
68196;SDS011;55019;49.382;11.358;2023-11-22T01:35:53;3.45;;;1.70;;
68196;SDS011;55019;49.382;11.358;2023-11-22T01:38:18;2.53;;;1.83;;
68196;SDS011;55019;49.382;11.358;2023-11-22T01:40:44;3.15;;;1.65;;
68196;SDS011;55019;49.382;11.358;2023-11-22T01:43:14;3.70;;;1.70;;
68196;SDS011;55019;49.382;11.358;2023-11-22T01:45:41;2.45;;;1.05;;
68196;SDS011;55019;49.382;11.358;2023-11-22T01:48:07;2.67;;;1.48;;
68196;SDS011;55019;49.382;11.358;2023-11-22T01:50:38;2.35;;;1.27;;
68196;SDS011;55019;49.382;11.358;2023-11-22T01:53:06;2.75;;;1.60;;
68196;SDS011;55019;49.382;11.358;2023-11-22T01:55:33;2.80;;;1.70;;
68196;SDS011;55019;49.382;11.358;2023-11-22T01:58:00;2.38;;;1.58;;
68196;SDS011;55019;49.382;11.358;2023-11-22T02:00:27;3.67;;;1.75;;
68196;SDS011;55019;49.382;11.358;2023-11-22T02:03:01;2.92;;;1.63;;
68196;SDS011;55019;49.382;11.358;2023-11-22T02:05:27;2.80;;;1.65;;
68196;SDS011;55019;49.382;11.358;2023-11-22T02:07:53;4.43;;;1.75;;
68196;SDS011;55019;49.382;11.358;2023-11-22T02:10:19;3.33;;;1.70;;
68196;SDS011;55019;49.382;11.358;2023-11-22T02:12:46;2.95;;;1.95;;
68196;SDS011;55019;49.382;11.358;2023-11-22T02:15:12;3.63;;;1.80;;
68196;SDS011;55019;49.382;11.358;2023-11-22T02:17:38;3.00;;;1.48;;
68196;SDS011;55019;49.382;11.358;2023-11-22T02:20:04;2.60;;;1.60;;
68196;SDS011;55019;49.382;11.358;2023-11-22T02:22:41;3.72;;;1.60;;
68196;SDS011;55019;49.382;11.358;2023-11-22T02:25:08;2.30;;;1.40;;
68196;SDS011;55019;49.382;11.358;2023-11-22T02:27:35;3.25;;;1.55;;
68196;SDS011;55019;49.382;11.358;2023-11-22T02:30:02;3.75;;;1.40;;
68196;SDS011;55019;49.382;11.358;2023-11-22T02:32:31;3.88;;;1.48;;
68196;SDS011;55019;49.382;11.358;2023-11-22T02:34:58;3.70;;;1.60;;
68196;SDS011;55019;49.382;11.358;2023-11-22T02:37:25;2.38;;;0.95;;
68196;SDS011;55019;49.382;11.358;2023-11-22T02:40:00;2.30;;;1.23;;
68196;SDS011;55019;49.382;11.358;2023-11-22T02:42:29;3.63;;;1.33;;
68196;SDS011;55019;49.382;11.358;2023-11-22T02:44:55;3.00;;;1.30;;
68196;SDS011;55019;49.382;11.358;2023-11-22T02:47:22;2.53;;;1.38;;
68196;SDS011;55019;49.382;11.358;2023-11-22T02:49:47;2.72;;;1.63;;
68196;SDS011;55019;49.382;11.358;2023-11-22T02:52:14;2.45;;;1.38;;
68196;SDS011;55019;49.382;11.358;2023-11-22T02:54:43;2.20;;;1.33;;
68196;SDS011;55019;49.382;11.358;2023-11-22T02:57:11;2.53;;;1.52;;
68196;SDS011;55019;49.382;11.358;2023-11-22T02:59:40;2.72;;;1.63;;
68196;SDS011;55019;49.382;11.358;2023-11-22T03:02:07;2.42;;;1.27;;
68196;SDS011;55019;49.382;11.358;2023-11-22T03:04:32;2.83;;;1.50;;
68196;SDS011;55019;49.382;11.358;2023-11-22T03:06:59;2.63;;;1.58;;
68196;SDS011;55019;49.382;11.358;2023-11-22T03:09:25;3.05;;;1.73;;
68196;SDS011;55019;49.382;11.358;2023-11-22T03:11:52;2.67;;;1.17;;
68196;SDS011;55019;49.382;11.358;2023-11-22T03:14:18;2.30;;;1.17;;
68196;SDS011;55019;49.382;11.358;2023-11-22T03:16:44;3.45;;;1.58;;
68196;SDS011;55019;49.382;11.358;2023-11-22T03:19:10;2.50;;;1.10;;
68196;SDS011;55019;49.382;11.358;2023-11-22T03:24:04;2.05;;;1.35;;
68196;SDS011;55019;49.382;11.358;2023-11-22T03:26:30;2.38;;;1.40;;
68196;SDS011;55019;49.382;11.358;2023-11-22T03:28:56;3.63;;;1.73;;
68196;SDS011;55019;49.382;11.358;2023-11-22T03:31:21;2.33;;;1.10;;
68196;SDS011;55019;49.382;11.358;2023-11-22T03:33:47;2.58;;;1.60;;
68196;SDS011;55019;49.382;11.358;2023-11-22T03:36:13;3.28;;;1.70;;
68196;SDS011;55019;49.382;11.358;2023-11-22T03:38:39;2.28;;;1.38;;
68196;SDS011;55019;49.382;11.358;2023-11-22T03:41:05;2.75;;;1.25;;
68196;SDS011;55019;49.382;11.358;2023-11-22T03:43:31;1.90;;;1.08;;
68196;SDS011;55019;49.382;11.358;2023-11-22T03:45:57;1.98;;;1.20;;
68196;SDS011;55019;49.382;11.358;2023-11-22T03:48:23;1.55;;;0.90;;
68196;SDS011;55019;49.382;11.358;2023-11-22T03:50:49;2.17;;;1.15;;
68196;SDS011;55019;49.382;11.358;2023-11-22T03:53:15;1.95;;;1.20;;
68196;SDS011;55019;49.382;11.358;2023-11-22T03:55:41;2.15;;;0.95;;
68196;SDS011;55019;49.382;11.358;2023-11-22T03:58:06;3.10;;;1.20;;
68196;SDS011;55019;49.382;11.358;2023-11-22T04:00:33;2.08;;;1.00;;
68196;SDS011;55019;49.382;11.358;2023-11-22T04:02:59;2.00;;;1.17;;
68196;SDS011;55019;49.382;11.358;2023-11-22T04:05:27;2.45;;;1.45;;
68196;SDS011;55019;49.382;11.358;2023-11-22T04:07:53;2.85;;;1.17;;
68196;SDS011;55019;49.382;11.358;2023-11-22T04:10:19;4.85;;;2.50;;
68196;SDS011;55019;49.382;11.358;2023-11-22T04:12:46;2.58;;;1.38;;
68196;SDS011;55019;49.382;11.358;2023-11-22T04:15:13;3.88;;;1.45;;
68196;SDS011;55019;49.382;11.358;2023-11-22T04:17:39;3.13;;;1.75;;
68196;SDS011;55019;49.382;11.358;2023-11-22T04:20:06;3.83;;;1.50;;
68196;SDS011;55019;49.382;11.358;2023-11-22T04:22:34;3.42;;;1.50;;
68196;SDS011;55019;49.382;11.358;2023-11-22T04:25:01;4.03;;;1.60;;
68196;SDS011;55019;49.382;11.358;2023-11-22T04:27:27;3.50;;;1.58;;
68196;SDS011;55019;49.382;11.358;2023-11-22T04:29:53;2.75;;;1.40;;
68196;SDS011;55019;49.382;11.358;2023-11-22T04:32:20;3.80;;;1.90;;
68196;SDS011;55019;49.382;11.358;2023-11-22T04:34:47;2.92;;;1.45;;
68196;SDS011;55019;49.382;11.358;2023-11-22T04:37:13;3.47;;;1.50;;
68196;SDS011;55019;49.382;11.358;2023-11-22T04:39:39;2.38;;;1.77;;
68196;SDS011;55019;49.382;11.358;2023-11-22T04:42:05;2.83;;;1.70;;
68196;SDS011;55019;49.382;11.358;2023-11-22T04:44:31;4.55;;;1.63;;
68196;SDS011;55019;49.382;11.358;2023-11-22T04:46:59;3.00;;;1.60;;
68196;SDS011;55019;49.382;11.358;2023-11-22T04:49:25;3.55;;;1.73;;
68196;SDS011;55019;49.382;11.358;2023-11-22T04:51:51;4.32;;;1.70;;
68196;SDS011;55019;49.382;11.358;2023-11-22T04:54:17;3.65;;;2.05;;
68196;SDS011;55019;49.382;11.358;2023-11-22T04:56:43;3.42;;;1.73;;
68196;SDS011;55019;49.382;11.358;2023-11-22T04:59:09;3.72;;;1.70;;
68196;SDS011;55019;49.382;11.358;2023-11-22T05:01:35;3.83;;;1.98;;
68196;SDS011;55019;49.382;11.358;2023-11-22T05:04:00;4.13;;;2.00;;
68196;SDS011;55019;49.382;11.358;2023-11-22T05:06:27;3.40;;;1.70;;
68196;SDS011;55019;49.382;11.358;2023-11-22T05:08:54;5.45;;;2.50;;
68196;SDS011;55019;49.382;11.358;2023-11-22T05:11:20;2.85;;;1.83;;
68196;SDS011;55019;49.382;11.358;2023-11-22T05:13:46;3.65;;;1.80;;
68196;SDS011;55019;49.382;11.358;2023-11-22T05:16:12;4.15;;;1.75;;
68196;SDS011;55019;49.382;11.358;2023-11-22T05:18:38;5.45;;;2.28;;
68196;SDS011;55019;49.382;11.358;2023-11-22T05:21:04;5.55;;;2.45;;
68196;SDS011;55019;49.382;11.358;2023-11-22T05:23:30;4.43;;;1.92;;
68196;SDS011;55019;49.382;11.358;2023-11-22T05:25:58;5.47;;;2.35;;
68196;SDS011;55019;49.382;11.358;2023-11-22T05:28:26;3.00;;;1.75;;
68196;SDS011;55019;49.382;11.358;2023-11-22T05:30:53;4.50;;;1.73;;
68196;SDS011;55019;49.382;11.358;2023-11-22T05:33:18;4.70;;;2.17;;
68196;SDS011;55019;49.382;11.358;2023-11-22T05:35:44;4.03;;;1.80;;
68196;SDS011;55019;49.382;11.358;2023-11-22T05:38:10;5.20;;;2.50;;
68196;SDS011;55019;49.382;11.358;2023-11-22T05:40:36;4.47;;;2.40;;
68196;SDS011;55019;49.382;11.358;2023-11-22T05:43:01;3.60;;;1.85;;
68196;SDS011;55019;49.382;11.358;2023-11-22T05:45:27;5.47;;;2.33;;
68196;SDS011;55019;49.382;11.358;2023-11-22T05:47:53;6.07;;;2.45;;
68196;SDS011;55019;49.382;11.358;2023-11-22T05:50:18;4.55;;;2.10;;
68196;SDS011;55019;49.382;11.358;2023-11-22T05:52:44;6.13;;;2.38;;
68196;SDS011;55019;49.382;11.358;2023-11-22T05:55:11;4.05;;;1.88;;
68196;SDS011;55019;49.382;11.358;2023-11-22T05:57:39;4.78;;;2.13;;
68196;SDS011;55019;49.382;11.358;2023-11-22T06:00:06;6.80;;;2.33;;
68196;SDS011;55019;49.382;11.358;2023-11-22T06:02:33;3.72;;;2.30;;
68196;SDS011;55019;49.382;11.358;2023-11-22T06:04:58;3.72;;;1.98;;
68196;SDS011;55019;49.382;11.358;2023-11-22T06:07:24;2.88;;;1.67;;
68196;SDS011;55019;49.382;11.358;2023-11-22T06:09:50;3.80;;;1.90;;
68196;SDS011;55019;49.382;11.358;2023-11-22T06:12:15;3.88;;;1.90;;
68196;SDS011;55019;49.382;11.358;2023-11-22T06:14:41;3.20;;;1.42;;
68196;SDS011;55019;49.382;11.358;2023-11-22T06:17:07;3.92;;;1.80;;
68196;SDS011;55019;49.382;11.358;2023-11-22T06:19:33;3.75;;;2.15;;
68196;SDS011;55019;49.382;11.358;2023-11-22T06:21:59;4.63;;;2.10;;
68196;SDS011;55019;49.382;11.358;2023-11-22T06:24:26;5.30;;;2.13;;
68196;SDS011;55019;49.382;11.358;2023-11-22T06:26:53;4.63;;;2.28;;
68196;SDS011;55019;49.382;11.358;2023-11-22T06:29:18;5.88;;;2.20;;
68196;SDS011;55019;49.382;11.358;2023-11-22T06:31:45;7.57;;;2.50;;
68196;SDS011;55019;49.382;11.358;2023-11-22T06:34:11;4.68;;;2.13;;
68196;SDS011;55019;49.382;11.358;2023-11-22T06:36:37;3.33;;;2.20;;
68196;SDS011;55019;49.382;11.358;2023-11-22T06:39:03;3.97;;;2.10;;
68196;SDS011;55019;49.382;11.358;2023-11-22T06:41:30;4.43;;;2.58;;
68196;SDS011;55019;49.382;11.358;2023-11-22T06:43:56;6.72;;;2.25;;
68196;SDS011;55019;49.382;11.358;2023-11-22T06:46:23;4.82;;;2.17;;
68196;SDS011;55019;49.382;11.358;2023-11-22T06:48:48;5.88;;;2.42;;
68196;SDS011;55019;49.382;11.358;2023-11-22T06:51:15;5.05;;;2.55;;
68196;SDS011;55019;49.382;11.358;2023-11-22T06:53:41;3.88;;;2.45;;
68196;SDS011;55019;49.382;11.358;2023-11-22T06:56:06;4.85;;;2.38;;
68196;SDS011;55019;49.382;11.358;2023-11-22T06:58:32;3.28;;;2.03;;
68196;SDS011;55019;49.382;11.358;2023-11-22T07:00:58;3.72;;;2.30;;
68196;SDS011;55019;49.382;11.358;2023-11-22T07:03:23;5.22;;;2.47;;
68196;SDS011;55019;49.382;11.358;2023-11-22T07:05:49;4.72;;;2.40;;
68196;SDS011;55019;49.382;11.358;2023-11-22T07:08:15;4.60;;;2.50;;
68196;SDS011;55019;49.382;11.358;2023-11-22T07:10:45;5.25;;;2.53;;
68196;SDS011;55019;49.382;11.358;2023-11-22T07:13:11;4.40;;;2.50;;
68196;SDS011;55019;49.382;11.358;2023-11-22T07:15:38;4.80;;;2.40;;
68196;SDS011;55019;49.382;11.358;2023-11-22T07:18:04;5.13;;;2.28;;
68196;SDS011;55019;49.382;11.358;2023-11-22T07:20:30;4.38;;;2.60;;
68196;SDS011;55019;49.382;11.358;2023-11-22T07:22:56;6.57;;;2.85;;
68196;SDS011;55019;49.382;11.358;2023-11-22T07:25:25;6.47;;;2.83;;
68196;SDS011;55019;49.382;11.358;2023-11-22T07:27:51;3.83;;;2.60;;
68196;SDS011;55019;49.382;11.358;2023-11-22T07:30:18;5.47;;;2.53;;
68196;SDS011;55019;49.382;11.358;2023-11-22T07:32:45;5.45;;;2.30;;
68196;SDS011;55019;49.382;11.358;2023-11-22T07:35:11;4.93;;;2.42;;
68196;SDS011;55019;49.382;11.358;2023-11-22T07:37:37;5.65;;;2.70;;
68196;SDS011;55019;49.382;11.358;2023-11-22T07:40:08;5.97;;;2.75;;
68196;SDS011;55019;49.382;11.358;2023-11-22T07:42:37;4.80;;;2.60;;
68196;SDS011;55019;49.382;11.358;2023-11-22T07:45:03;4.70;;;2.65;;
68196;SDS011;55019;49.382;11.358;2023-11-22T07:47:29;5.07;;;2.75;;
68196;SDS011;55019;49.382;11.358;2023-11-22T07:49:55;4.45;;;2.67;;
68196;SDS011;55019;49.382;11.358;2023-11-22T07:52:21;3.80;;;1.95;;
68196;SDS011;55019;49.382;11.358;2023-11-22T07:54:47;4.53;;;2.88;;
68196;SDS011;55019;49.382;11.358;2023-11-22T07:57:13;5.18;;;2.80;;
68196;SDS011;55019;49.382;11.358;2023-11-22T07:59:39;4.43;;;2.42;;
68196;SDS011;55019;49.382;11.358;2023-11-22T08:02:05;5.38;;;3.05;;
68196;SDS011;55019;49.382;11.358;2023-11-22T08:04:36;5.38;;;2.70;;
68196;SDS011;55019;49.382;11.358;2023-11-22T08:07:03;5.20;;;2.63;;
68196;SDS011;55019;49.382;11.358;2023-11-22T08:09:30;5.18;;;2.80;;
68196;SDS011;55019;49.382;11.358;2023-11-22T08:12:00;4.50;;;2.30;;
68196;SDS011;55019;49.382;11.358;2023-11-22T08:14:28;5.75;;;2.80;;
68196;SDS011;55019;49.382;11.358;2023-11-22T08:16:54;7.03;;;3.15;;
68196;SDS011;55019;49.382;11.358;2023-11-22T08:19:20;6.90;;;2.80;;
68196;SDS011;55019;49.382;11.358;2023-11-22T08:21:49;5.75;;;2.97;;
68196;SDS011;55019;49.382;11.358;2023-11-22T08:24:15;4.20;;;2.25;;
68196;SDS011;55019;49.382;11.358;2023-11-22T08:26:40;5.63;;;2.70;;
68196;SDS011;55019;49.382;11.358;2023-11-22T08:29:06;6.18;;;2.95;;
68196;SDS011;55019;49.382;11.358;2023-11-22T08:31:33;4.75;;;2.67;;
68196;SDS011;55019;49.382;11.358;2023-11-22T08:34:01;5.63;;;3.08;;
68196;SDS011;55019;49.382;11.358;2023-11-22T08:36:29;6.75;;;2.90;;
68196;SDS011;55019;49.382;11.358;2023-11-22T08:38:57;5.53;;;2.78;;
68196;SDS011;55019;49.382;11.358;2023-11-22T08:43:51;5.93;;;2.22;;
68196;SDS011;55019;49.382;11.358;2023-11-22T08:46:17;5.50;;;3.08;;
68196;SDS011;55019;49.382;11.358;2023-11-22T08:48:43;4.97;;;3.17;;
68196;SDS011;55019;49.382;11.358;2023-11-22T08:51:09;5.32;;;2.33;;
68196;SDS011;55019;49.382;11.358;2023-11-22T08:53:35;5.88;;;2.88;;
68196;SDS011;55019;49.382;11.358;2023-11-22T08:56:02;4.75;;;3.13;;
68196;SDS011;55019;49.382;11.358;2023-11-22T08:58:31;6.80;;;3.17;;
68196;SDS011;55019;49.382;11.358;2023-11-22T09:00:57;5.72;;;2.50;;
68196;SDS011;55019;49.382;11.358;2023-11-22T09:03:23;4.78;;;2.63;;
68196;SDS011;55019;49.382;11.358;2023-11-22T09:05:49;5.63;;;3.17;;
68196;SDS011;55019;49.382;11.358;2023-11-22T09:08:15;5.53;;;2.78;;
68196;SDS011;55019;49.382;11.358;2023-11-22T09:10:41;4.75;;;2.30;;
68196;SDS011;55019;49.382;11.358;2023-11-22T09:13:10;7.13;;;2.90;;
68196;SDS011;55019;49.382;11.358;2023-11-22T09:15:37;7.60;;;3.00;;
68196;SDS011;55019;49.382;11.358;2023-11-22T09:18:04;5.22;;;2.85;;
68196;SDS011;55019;49.382;11.358;2023-11-22T09:20:30;5.05;;;2.47;;
68196;SDS011;55019;49.382;11.358;2023-11-22T09:22:55;6.47;;;3.25;;
68196;SDS011;55019;49.382;11.358;2023-11-22T09:25:22;7.88;;;3.47;;
68196;SDS011;55019;49.382;11.358;2023-11-22T09:27:50;7.07;;;3.35;;
68196;SDS011;55019;49.382;11.358;2023-11-22T09:30:20;6.13;;;3.13;;
68196;SDS011;55019;49.382;11.358;2023-11-22T09:33:07;5.78;;;3.03;;
68196;SDS011;55019;49.382;11.358;2023-11-22T09:38:01;6.22;;;3.17;;
68196;SDS011;55019;49.382;11.358;2023-11-22T09:40:28;5.70;;;3.42;;
68196;SDS011;55019;49.382;11.358;2023-11-22T09:43:01;7.00;;;3.80;;
68196;SDS011;55019;49.382;11.358;2023-11-22T09:45:28;6.03;;;3.33;;
68196;SDS011;55019;49.382;11.358;2023-11-22T09:47:55;6.35;;;3.30;;
68196;SDS011;55019;49.382;11.358;2023-11-22T09:50:27;6.45;;;3.88;;
68196;SDS011;55019;49.382;11.358;2023-11-22T09:52:55;10.05;;;4.63;;
68196;SDS011;55019;49.382;11.358;2023-11-22T09:55:25;8.73;;;3.63;;
68196;SDS011;55019;49.382;11.358;2023-11-22T09:57:53;8.82;;;4.03;;
68196;SDS011;55019;49.382;11.358;2023-11-22T10:00:21;5.45;;;3.20;;
68196;SDS011;55019;49.382;11.358;2023-11-22T10:02:50;8.70;;;3.13;;
68196;SDS011;55019;49.382;11.358;2023-11-22T10:05:16;7.90;;;4.13;;
68196;SDS011;55019;49.382;11.358;2023-11-22T10:07:41;8.82;;;3.85;;
68196;SDS011;55019;49.382;11.358;2023-11-22T10:10:07;9.15;;;4.82;;
68196;SDS011;55019;49.382;11.358;2023-11-22T10:12:36;7.60;;;4.10;;
68196;SDS011;55019;49.382;11.358;2023-11-22T10:15:12;9.35;;;3.88;;
68196;SDS011;55019;49.382;11.358;2023-11-22T10:17:38;6.90;;;3.72;;
68196;SDS011;55019;49.382;11.358;2023-11-22T10:20:04;7.97;;;3.53;;
68196;SDS011;55019;49.382;11.358;2023-11-22T10:22:45;7.70;;;3.65;;
68196;SDS011;55019;49.382;11.358;2023-11-22T10:25:14;6.30;;;3.08;;
68196;SDS011;55019;49.382;11.358;2023-11-22T10:27:46;6.72;;;3.90;;
68196;SDS011;55019;49.382;11.358;2023-11-22T10:30:13;6.45;;;3.22;;
68196;SDS011;55019;49.382;11.358;2023-11-22T10:32:41;7.00;;;3.35;;
68196;SDS011;55019;49.382;11.358;2023-11-22T10:35:08;5.78;;;3.20;;
68196;SDS011;55019;49.382;11.358;2023-11-22T10:37:34;6.30;;;3.17;;
68196;SDS011;55019;49.382;11.358;2023-11-22T10:40:00;7.97;;;3.17;;
68196;SDS011;55019;49.382;11.358;2023-11-22T10:42:27;6.35;;;3.20;;
68196;SDS011;55019;49.382;11.358;2023-11-22T10:44:55;4.57;;;3.13;;
68196;SDS011;55019;49.382;11.358;2023-11-22T10:47:22;7.97;;;3.17;;
68196;SDS011;55019;49.382;11.358;2023-11-22T10:49:49;6.13;;;3.10;;
68196;SDS011;55019;49.382;11.358;2023-11-22T10:52:16;7.45;;;3.65;;
68196;SDS011;55019;49.382;11.358;2023-11-22T10:54:44;6.15;;;3.13;;
68196;SDS011;55019;49.382;11.358;2023-11-22T10:57:19;5.78;;;3.55;;
68196;SDS011;55019;49.382;11.358;2023-11-22T10:59:50;6.50;;;3.17;;
68196;SDS011;55019;49.382;11.358;2023-11-22T11:02:19;6.32;;;3.70;;
68196;SDS011;55019;49.382;11.358;2023-11-22T11:04:59;7.80;;;3.28;;
68196;SDS011;55019;49.382;11.358;2023-11-22T11:07:35;7.10;;;3.47;;
68196;SDS011;55019;49.382;11.358;2023-11-22T11:10:06;4.32;;;2.80;;
68196;SDS011;55019;49.382;11.358;2023-11-22T11:12:33;5.72;;;2.67;;
68196;SDS011;55019;49.382;11.358;2023-11-22T11:14:59;5.50;;;2.80;;
68196;SDS011;55019;49.382;11.358;2023-11-22T11:17:25;6.22;;;2.90;;
68196;SDS011;55019;49.382;11.358;2023-11-22T11:19:51;5.95;;;3.10;;
68196;SDS011;55019;49.382;11.358;2023-11-22T11:22:17;5.95;;;3.30;;
68196;SDS011;55019;49.382;11.358;2023-11-22T11:27:12;5.97;;;2.85;;
68196;SDS011;55019;49.382;11.358;2023-11-22T11:29:38;6.53;;;3.00;;
68196;SDS011;55019;49.382;11.358;2023-11-22T11:32:11;5.70;;;3.20;;
68196;SDS011;55019;49.382;11.358;2023-11-22T11:34:50;7.93;;;3.60;;
68196;SDS011;55019;49.382;11.358;2023-11-22T11:37:17;6.63;;;3.15;;
68196;SDS011;55019;49.382;11.358;2023-11-22T11:39:44;7.00;;;3.22;;
68196;SDS011;55019;49.382;11.358;2023-11-22T11:42:10;6.10;;;2.88;;
68196;SDS011;55019;49.382;11.358;2023-11-22T11:44:50;7.82;;;3.10;;
68196;SDS011;55019;49.382;11.358;2023-11-22T11:47:22;5.13;;;2.92;;
68196;SDS011;55019;49.382;11.358;2023-11-22T11:49:49;6.85;;;3.20;;
68196;SDS011;55019;49.382;11.358;2023-11-22T11:52:15;9.18;;;3.60;;
68196;SDS011;55019;49.382;11.358;2023-11-22T11:54:41;7.07;;;3.53;;
68196;SDS011;55019;49.382;11.358;2023-11-22T11:57:07;7.38;;;3.83;;
68196;SDS011;55019;49.382;11.358;2023-11-22T11:59:33;5.95;;;2.83;;
68196;SDS011;55019;49.382;11.358;2023-11-22T12:02:00;5.38;;;3.10;;
68196;SDS011;55019;49.382;11.358;2023-11-22T12:04:26;6.72;;;3.20;;
68196;SDS011;55019;49.382;11.358;2023-11-22T12:06:52;7.43;;;2.88;;
68196;SDS011;55019;49.382;11.358;2023-11-22T12:09:24;4.85;;;2.90;;
68196;SDS011;55019;49.382;11.358;2023-11-22T12:11:51;6.10;;;3.72;;
68196;SDS011;55019;49.382;11.358;2023-11-22T12:14:20;6.60;;;3.17;;
68196;SDS011;55019;49.382;11.358;2023-11-22T12:16:50;4.78;;;2.95;;
68196;SDS011;55019;49.382;11.358;2023-11-22T12:19:27;9.25;;;3.25;;
68196;SDS011;55019;49.382;11.358;2023-11-22T12:21:56;6.05;;;2.88;;
68196;SDS011;55019;49.382;11.358;2023-11-22T12:24:22;5.63;;;2.92;;
68196;SDS011;55019;49.382;11.358;2023-11-22T12:26:50;5.43;;;2.78;;
68196;SDS011;55019;49.382;11.358;2023-11-22T12:29:19;5.05;;;3.13;;
68196;SDS011;55019;49.382;11.358;2023-11-22T12:31:48;5.80;;;3.00;;
68196;SDS011;55019;49.382;11.358;2023-11-22T12:34:16;6.20;;;3.10;;
68196;SDS011;55019;49.382;11.358;2023-11-22T12:36:43;7.15;;;3.55;;
68196;SDS011;55019;49.382;11.358;2023-11-22T12:39:10;7.22;;;3.33;;
68196;SDS011;55019;49.382;11.358;2023-11-22T12:41:46;6.35;;;3.70;;
68196;SDS011;55019;49.382;11.358;2023-11-22T12:44:13;7.82;;;3.38;;
68196;SDS011;55019;49.382;11.358;2023-11-22T12:46:48;4.65;;;3.00;;
68196;SDS011;55019;49.382;11.358;2023-11-22T12:49:27;4.85;;;2.78;;
68196;SDS011;55019;49.382;11.358;2023-11-22T12:51:53;7.10;;;2.95;;
68196;SDS011;55019;49.382;11.358;2023-11-22T12:54:20;6.15;;;3.22;;
68196;SDS011;55019;49.382;11.358;2023-11-22T12:56:47;5.05;;;2.63;;
68196;SDS011;55019;49.382;11.358;2023-11-22T12:59:23;5.05;;;3.13;;
68196;SDS011;55019;49.382;11.358;2023-11-22T13:01:52;6.22;;;3.78;;
68196;SDS011;55019;49.382;11.358;2023-11-22T13:04:18;5.22;;;2.80;;
68196;SDS011;55019;49.382;11.358;2023-11-22T13:06:43;7.53;;;2.85;;
68196;SDS011;55019;49.382;11.358;2023-11-22T13:09:10;5.22;;;2.67;;
68196;SDS011;55019;49.382;11.358;2023-11-22T13:11:42;6.00;;;2.65;;
68196;SDS011;55019;49.382;11.358;2023-11-22T13:14:09;4.88;;;2.85;;
68196;SDS011;55019;49.382;11.358;2023-11-22T13:16:35;6.43;;;3.13;;
68196;SDS011;55019;49.382;11.358;2023-11-22T13:19:02;5.80;;;3.17;;
68196;SDS011;55019;49.382;11.358;2023-11-22T13:21:29;2.97;;;1.98;;
68196;SDS011;55019;49.382;11.358;2023-11-22T13:23:56;6.65;;;2.80;;
68196;SDS011;55019;49.382;11.358;2023-11-22T13:26:24;5.70;;;2.90;;
68196;SDS011;55019;49.382;11.358;2023-11-22T13:28:51;7.30;;;3.47;;
68196;SDS011;55019;49.382;11.358;2023-11-22T13:31:18;6.57;;;3.08;;
68196;SDS011;55019;49.382;11.358;2023-11-22T13:33:44;6.60;;;3.47;;
68196;SDS011;55019;49.382;11.358;2023-11-22T13:36:12;6.10;;;2.75;;
68196;SDS011;55019;49.382;11.358;2023-11-22T13:38:39;8.70;;;3.72;;
68196;SDS011;55019;49.382;11.358;2023-11-22T13:41:05;7.03;;;3.35;;
68196;SDS011;55019;49.382;11.358;2023-11-22T13:43:31;4.93;;;2.65;;
68196;SDS011;55019;49.382;11.358;2023-11-22T13:45:58;7.50;;;3.72;;
68196;SDS011;55019;49.382;11.358;2023-11-22T13:48:25;5.63;;;2.92;;
68196;SDS011;55019;49.382;11.358;2023-11-22T13:50:51;7.03;;;3.20;;
68196;SDS011;55019;49.382;11.358;2023-11-22T13:53:17;4.78;;;2.70;;
68196;SDS011;55019;49.382;11.358;2023-11-22T13:55:47;5.00;;;2.65;;
68196;SDS011;55019;49.382;11.358;2023-11-22T13:58:13;5.80;;;2.92;;
68196;SDS011;55019;49.382;11.358;2023-11-22T14:00:39;5.65;;;2.42;;
68196;SDS011;55019;49.382;11.358;2023-11-22T14:03:05;5.53;;;2.95;;
68196;SDS011;55019;49.382;11.358;2023-11-22T14:05:32;5.60;;;2.67;;
68196;SDS011;55019;49.382;11.358;2023-11-22T14:08:00;5.28;;;2.95;;
68196;SDS011;55019;49.382;11.358;2023-11-22T14:10:26;5.05;;;3.13;;
68196;SDS011;55019;49.382;11.358;2023-11-22T14:12:51;4.28;;;2.70;;
68196;SDS011;55019;49.382;11.358;2023-11-22T14:15:17;5.53;;;2.85;;
68196;SDS011;55019;49.382;11.358;2023-11-22T14:17:45;5.30;;;2.75;;
68196;SDS011;55019;49.382;11.358;2023-11-22T14:20:14;6.90;;;3.33;;
68196;SDS011;55019;49.382;11.358;2023-11-22T14:22:41;6.45;;;3.15;;
68196;SDS011;55019;49.382;11.358;2023-11-22T14:25:08;6.80;;;3.50;;
68196;SDS011;55019;49.382;11.358;2023-11-22T14:27:43;4.45;;;2.72;;
68196;SDS011;55019;49.382;11.358;2023-11-22T14:30:10;6.80;;;3.42;;
68196;SDS011;55019;49.382;11.358;2023-11-22T14:32:39;5.25;;;2.78;;
68196;SDS011;55019;49.382;11.358;2023-11-22T14:35:05;4.85;;;2.70;;
68196;SDS011;55019;49.382;11.358;2023-11-22T14:37:35;6.25;;;2.90;;
68196;SDS011;55019;49.382;11.358;2023-11-22T14:40:03;5.28;;;2.83;;
68196;SDS011;55019;49.382;11.358;2023-11-22T14:42:42;5.45;;;3.35;;